F/V Men Gwen — FGPU — position and weather

sailwx.info

Track history (hours):
 
Tides and Currents Weather Stations Pressure Air Temp Water Temp Dewpoint Dewpoint Depression Visibility Wind Speed Wind Dir Waves Ship Positions

F/V Men Gwen

Last reported at 2018-Feb-21 06:31 UTC. Time now 2018-Feb-22 01:21 UTC.
Position N 47°10' W 003°02'.

Length 18 m.

Type: Fishing. MMSI: 227481000.

Date/timePositionNaut miles runAvg speedWind from/ knotsBaromVisibWave heightAir tempDewpointWater temp
2018-Feb-21 06:31N 47°10' W 003°02'0 3.3
2018-Feb-21 06:30N 47°10' W 003°02'2 3.3
2018-Feb-21 06:00N 47°12' W 003°01'4 6.3
2018-Feb-21 05:21N 47°16' W 003°01'3 8.4
2018-Feb-21 05:00N 47°19' W 003°02'4 8.8
2018-Feb-21 04:30N 47°22' W 003°05'5 9.7
2018-Feb-21 04:00N 47°26' W 003°09'5 9.3
2018-Feb-21 03:30N 47°30' W 003°13'4 9.0
2018-Feb-21 03:00N 47°34' W 003°16'4 8.8
2018-Feb-21 02:30N 47°38' W 003°19'4 8.6
2018-Feb-21 02:00N 47°42' W 003°22'2 3.9
2018-Feb-21 01:30N 47°44' W 003°22'0 0.0
2018-Feb-21 01:00N 47°44' W 003°22'2 4.0
2018-Feb-21 00:30N 47°42' W 003°22'4 8.2
2018-Feb-21 00:00N 47°38' W 003°22'4 8.2
2018-Feb-20 23:30N 47°34' W 003°22'4 8.1
2018-Feb-20 23:00N 47°29' W 003°21'2 3.9
2018-Feb-20 22:30N 47°28' W 003°21'2 3.3
2018-Feb-20 22:00N 47°26' W 003°19'2 3.5
2018-Feb-20 21:30N 47°26' W 003°17'2 3.4
2018-Feb-20 21:00N 47°26' W 003°19'2 3.2
2018-Feb-20 20:30N 47°26' W 003°21'1 1.3
2018-Feb-20 20:00N 47°26' W 003°21'2 3.8
2018-Feb-20 19:30N 47°26' W 003°18'2 3.7
2018-Feb-20 19:00N 47°26' W 003°15'1 2.0
2018-Feb-20 18:30N 47°25' W 003°14'1 2.9
2018-Feb-20 18:00N 47°26' W 003°17'2 3.3
2018-Feb-20 17:30N 47°25' W 003°19'1 2.5
2018-Feb-20 17:00N 47°25' W 003°17'1 2.8
2018-Feb-20 16:30N 47°25' W 003°15'1 2.2
2018-Feb-20 16:00N 47°26' W 003°15'2 4.2
2018-Feb-20 15:30N 47°26' W 003°18'1 2.9
2018-Feb-20 15:00N 47°25' W 003°20'1 2.7
2018-Feb-20 14:30N 47°24' W 003°18'1 2.7
2018-Feb-20 14:00N 47°24' W 003°16'1 2.7
2018-Feb-20 13:30N 47°26' W 003°15'2 3.3
2018-Feb-20 13:00N 47°26' W 003°17'2 3.4
2018-Feb-20 12:30N 47°25' W 003°19'2 3.1
2018-Feb-20 12:00N 47°25' W 003°22'1 2.5
2018-Feb-20 11:30N 47°25' W 003°23'2 3.0
2018-Feb-20 11:00N 47°25' W 003°21'2 3.6
2018-Feb-20 10:30N 47°25' W 003°19'2 3.8
2018-Feb-20 10:00N 47°25' W 003°16'1 1.9
2018-Feb-20 09:30N 47°25' W 003°16'1 3.0
2018-Feb-20 09:00N 47°25' W 003°18'2 3.3
2018-Feb-20 08:30N 47°25' W 003°20'2 3.2
2018-Feb-20 08:00N 47°25' W 003°23'1 2.2
2018-Feb-20 07:30N 47°24' W 003°22'2 3.3
2018-Feb-20 07:00N 47°25' W 003°19'2 3.3
2018-Feb-20 06:30N 47°24' W 003°17'2 3.2
2018-Feb-20 06:00N 47°25' W 003°15'1 2.6
2018-Feb-20 05:30N 47°26' W 003°16'2 4.0
2018-Feb-20 05:00N 47°25' W 003°19'1 1.6
2018-Feb-20 04:30N 47°25' W 003°19'1 2.6
2018-Feb-20 04:00N 47°25' W 003°17'1 2.5
2018-Feb-20 03:30N 47°25' W 003°15'1 2.4
2018-Feb-20 03:00N 47°26' W 003°15'2 4.2
2018-Feb-20 02:30N 47°26' W 003°18'1 2.8
2018-Feb-20 02:00N 47°24' W 003°19'1 2.9
2018-Feb-20 01:30N 47°24' W 003°17'1 2.7
2018-Feb-20 01:00N 47°25' W 003°15'1 1.8
2018-Feb-20 00:30N 47°26' W 003°15'2 3.5
2018-Feb-20 00:00N 47°26' W 003°18'1 2.4
2018-Feb-19 23:30N 47°25' W 003°19'2 3.6
2018-Feb-19 23:00N 47°24' W 003°16'1 2.5
2018-Feb-19 22:30N 47°26' W 003°15'1 2.9
2018-Feb-19 22:00N 47°25' W 003°18'1 2.5
2018-Feb-19 21:30N 47°25' W 003°19'1 1.6
2018-Feb-19 21:00N 47°26' W 003°20'2 3.3
2018-Feb-19 20:31N 47°26' W 003°22'1 2.6
2018-Feb-19 20:00N 47°28' W 003°22'2 3.0
2018-Feb-19 19:30N 47°26' W 003°21'2 3.5
2018-Feb-19 19:00N 47°26' W 003°19'1 1.4
2018-Feb-19 18:30N 47°26' W 003°19'1 2.3
2018-Feb-19 18:00N 47°24' W 003°19'2 3.4
2018-Feb-19 17:30N 47°24' W 003°16'2 3.1
2018-Feb-19 17:00N 47°25' W 003°14'2 3.6
2018-Feb-19 16:30N 47°26' W 003°17'2 3.9
2018-Feb-19 16:00N 47°25' W 003°20'2 3.8
2018-Feb-19 15:30N 47°26' W 003°22'4 8.8
2018-Feb-19 15:00N 47°30' W 003°22'4 8.5
2018-Feb-19 14:30N 47°34' W 003°22'4 8.3
2018-Feb-19 14:00N 47°39' W 003°22'4 8.5
2018-Feb-19 13:30N 47°43' W 003°22'1 1.9
2018-Feb-19 13:00N 47°44' W 003°22'0 0.0
2018-Feb-19 12:30N 47°44' W 003°22'0 0.0
2018-Feb-19 12:00N 47°44' W 003°22'0 0.0
2018-Feb-19 11:30N 47°44' W 003°22'0 0.0
2018-Feb-19 11:00N 47°44' W 003°22'  
2018-Feb-17 04:22N 47°44' W 003°22'0 0.3
2018-Feb-17 04:00N 47°44' W 003°22'0 0.0
2018-Feb-17 03:30N 47°44' W 003°22'0 0.0
2018-Feb-17 03:00N 47°44' W 003°22'0 0.0
2018-Feb-17 02:30N 47°44' W 003°22'0 0.0
2018-Feb-17 02:00N 47°44' W 003°22'0 0.2
2018-Feb-17 01:30N 47°44' W 003°22'0 0.0
2018-Feb-17 01:00N 47°44' W 003°22'0 0.2
2018-Feb-17 00:30N 47°44' W 003°22'1 1.2
2018-Feb-17 00:00N 47°43' W 003°22'5 9.3
2018-Feb-16 23:30N 47°38' W 003°23'4 8.5
2018-Feb-16 23:00N 47°34' W 003°22'4 8.7
2018-Feb-16 22:30N 47°30' W 003°21'3 6.5
2018-Feb-16 22:00N 47°27' W 003°19'2 3.3
2018-Feb-16 21:30N 47°25' W 003°19'1 2.7
2018-Feb-16 21:00N 47°24' W 003°18'2 4.0
2018-Feb-16 20:30N 47°25' W 003°15'1 2.2
2018-Feb-16 20:00N 47°26' W 003°16'2 3.2
2018-Feb-16 19:29N 47°26' W 003°18'1 2.3
2018-Feb-16 19:00N 47°25' W 003°19'2 4.1
2018-Feb-16 18:31N 47°25' W 003°16'1 2.5
2018-Feb-16 18:00N 47°26' W 003°17'2 3.1
2018-Feb-16 17:30N 47°25' W 003°19'1 3.0
2018-Feb-16 17:00N 47°25' W 003°17'1 2.8
2018-Feb-16 16:30N 47°25' W 003°15'2 3.3
2018-Feb-16 16:00N 47°25' W 003°18'1 1.8
2018-Feb-16 15:30N 47°25' W 003°19'2 3.5
2018-Feb-16 15:00N 47°24' W 003°16'2 3.0
2018-Feb-16 14:30N 47°25' W 003°14'1 1.3
2018-Feb-16 14:00N 47°26' W 003°14'2 3.2
2018-Feb-16 13:30N 47°26' W 003°17'2 3.8
2018-Feb-16 13:01N 47°25' W 003°19'1 2.8
2018-Feb-16 12:30N 47°24' W 003°18'1 2.8
2018-Feb-16 12:01N 47°25' W 003°16'1 1.6
2018-Feb-16 11:30N 47°25' W 003°16'2 3.3
2018-Feb-16 11:00N 47°25' W 003°19'2 3.3
2018-Feb-16 10:30N 47°25' W 003°21'1 2.0
2018-Feb-16 10:00N 47°24' W 003°22'2 3.6
2018-Feb-16 09:30N 47°25' W 003°20'2 3.6
2018-Feb-16 09:00N 47°25' W 003°17'2 3.4
2018-Feb-16 08:30N 47°25' W 003°15'1 2.2
2018-Feb-16 08:00N 47°26' W 003°16'2 3.1
2018-Feb-16 07:30N 47°26' W 003°18'1 2.0
2018-Feb-16 07:01N 47°25' W 003°19'2 3.8
2018-Feb-16 06:30N 47°25' W 003°16'1 1.4
2018-Feb-16 06:00N 47°25' W 003°17'2 3.2
2018-Feb-16 05:30N 47°25' W 003°19'1 2.2
2018-Feb-16 05:01N 47°24' W 003°18'2 3.5
2018-Feb-16 04:30N 47°25' W 003°15'1 2.3
2018-Feb-16 04:00N 47°26' W 003°16'2 3.9
2018-Feb-16 03:30N 47°26' W 003°18'2 3.7
2018-Feb-16 03:00N 47°25' W 003°21'4 7.7
2018-Feb-16 02:30N 47°21' W 003°20'5 9.0
2018-Feb-16 02:00N 47°17' W 003°18'4 8.8
2018-Feb-16 01:30N 47°13' W 003°14'4 9.0
2018-Feb-16 01:00N 47°09' W 003°11'15 0.3
2018-Feb-14 06:05N 47°21' W 003°25'1 7.6
2018-Feb-14 06:00N 47°22' W 003°24'4 7.8
2018-Feb-14 05:30N 47°26' W 003°24'4 7.9
2018-Feb-14 05:00N 47°29' W 003°23'4 7.9
2018-Feb-14 04:30N 47°33' W 003°23'4 8.2
2018-Feb-14 04:00N 47°38' W 003°23'4 8.2
2018-Feb-14 03:30N 47°42' W 003°22'2 4.2
2018-Feb-14 03:00N 47°44' W 003°22'0 0.0
2018-Feb-14 02:30N 47°44' W 003°22'0 0.0
2018-Feb-14 02:00N 47°44' W 003°22'0 0.0
2018-Feb-14 01:30N 47°44' W 003°22'0 0.0
2018-Feb-14 01:00N 47°44' W 003°22'0 0.0
2018-Feb-14 00:30N 47°44' W 003°22'0 0.2
2018-Feb-14 00:00N 47°44' W 003°22'4 8.7
2018-Feb-13 23:30N 47°39' W 003°22'4 8.3
2018-Feb-13 23:00N 47°35' W 003°19'4 8.3
2018-Feb-13 22:30N 47°32' W 003°17'4 8.0
2018-Feb-13 22:00N 47°28' W 003°15'3 5.1
2018-Feb-13 21:30N 47°25' W 003°16'2 3.5
2018-Feb-13 21:00N 47°25' W 003°18'1 1.7
2018-Feb-13 20:30N 47°24' W 003°18'2 3.7
2018-Feb-13 20:00N 47°24' W 003°15'2 3.1
2018-Feb-13 19:30N 47°25' W 003°13'1 2.5
2018-Feb-13 19:00N 47°26' W 003°15'2 3.3
2018-Feb-13 18:30N 47°26' W 003°17'2 3.1
2018-Feb-13 18:00N 47°25' W 003°19'1 2.8
2018-Feb-13 17:30N 47°25' W 003°17'1 2.6
2018-Feb-13 17:00N 47°25' W 003°15'1 2.3
2018-Feb-13 16:30N 47°26' W 003°15'2 3.5
2018-Feb-13 16:00N 47°26' W 003°18'1 2.3
2018-Feb-13 15:30N 47°25' W 003°19'1 2.8
2018-Feb-13 15:00N 47°25' W 003°17'1 2.7
2018-Feb-13 14:30N 47°25' W 003°15'1 2.5
2018-Feb-13 14:00N 47°25' W 003°16'2 3.9
2018-Feb-13 13:30N 47°25' W 003°19'1 1.9
2018-Feb-13 13:00N 47°25' W 003°20'1 2.7
2018-Feb-13 12:31N 47°24' W 003°18'1 2.7
2018-Feb-13 12:01N 47°24' W 003°16'1 2.6
2018-Feb-13 11:30N 47°24' W 003°15'1 2.4
2018-Feb-13 11:01N 47°25' W 003°13'1 2.6
2018-Feb-13 10:31N 47°26' W 003°15'2 3.8
2018-Feb-13 10:01N 47°26' W 003°18'2 3.6
2018-Feb-13 09:30N 47°25' W 003°20'0 1.0
2018-Feb-13 09:01N 47°25' W 003°21'2 3.2
2018-Feb-13 08:30N 47°24' W 003°18'2 3.2
2018-Feb-13 08:00N 47°24' W 003°16'1 1.7
2018-Feb-13 07:31N 47°25' W 003°16'1 2.9
2018-Feb-13 07:00N 47°25' W 003°18'1 3.0
2018-Feb-13 06:30N 47°25' W 003°20'1 2.9
2018-Feb-13 06:00N 47°25' W 003°22'1 2.1
2018-Feb-13 05:30N 47°24' W 003°22'1 2.9
2018-Feb-13 05:00N 47°25' W 003°20'1 1.2
2018-Feb-13 04:30N 47°25' W 003°19'1 2.5
2018-Feb-13 04:00N 47°24' W 003°18'2 3.2
2018-Feb-13 03:30N 47°25' W 003°16'1 1.6
2018-Feb-13 03:01N 47°25' W 003°16'2 3.3
2018-Feb-13 02:30N 47°25' W 003°19'2 3.5
2018-Feb-13 02:00N 47°25' W 003°21'1 2.5
2018-Feb-13 01:30N 47°24' W 003°23'1 2.9
2018-Feb-13 01:01N 47°25' W 003°21'1 1.9
2018-Feb-13 00:30N 47°25' W 003°19'1 3.0
2018-Feb-13 00:00N 47°25' W 003°17'1 2.8
2018-Feb-12 23:30N 47°25' W 003°15'1 2.2
2018-Feb-12 23:00N 47°26' W 003°16'2 3.9
2018-Feb-12 22:30N 47°26' W 003°19'2 3.6
2018-Feb-12 22:00N 47°25' W 003°21'1 2.5
2018-Feb-12 21:30N 47°24' W 003°23'2 3.0
2018-Feb-12 21:00N 47°25' W 003°20'1 2.3
2018-Feb-12 20:31N 47°24' W 003°19'2 3.4
2018-Feb-12 20:00N 47°25' W 003°16'1 2.4
2018-Feb-12 19:31N 47°25' W 003°18'1 2.2
2018-Feb-12 19:00N 47°25' W 003°19'2 3.8
2018-Feb-12 18:30N 47°24' W 003°16'2 3.3
2018-Feb-12 18:00N 47°26' W 003°15'2 3.3
2018-Feb-12 17:30N 47°26' W 003°17'2 3.5
2018-Feb-12 17:00N 47°25' W 003°20'0 1.0
2018-Feb-12 16:30N 47°25' W 003°20'2 3.4
2018-Feb-12 16:01N 47°25' W 003°17'2 3.0
2018-Feb-12 15:30N 47°25' W 003°15'2 3.2
2018-Feb-12 15:00N 47°25' W 003°18'2 3.6
2018-Feb-12 14:31N 47°25' W 003°20'2 3.4
2018-Feb-12 14:00N 47°25' W 003°23'1 2.4
2018-Feb-12 13:31N 47°25' W 003°21'2 3.2
2018-Feb-12 13:01N 47°24' W 003°19'1 2.5
2018-Feb-12 12:31N 47°24' W 003°17'1 3.0
2018-Feb-12 12:01N 47°25' W 003°15'1 2.3
2018-Feb-12 11:30N 47°26' W 003°16'2 3.8
2018-Feb-12 11:01N 47°25' W 003°19'1 1.9
2018-Feb-12 10:31N 47°25' W 003°18'1 3.0
2018-Feb-12 10:01N 47°25' W 003°16'1 1.4
2018-Feb-12 09:31N 47°25' W 003°16'2 3.6
2018-Feb-12 09:01N 47°25' W 003°19'2 3.7
2018-Feb-12 08:31N 47°25' W 003°22'1 2.3
2018-Feb-12 08:00N 47°24' W 003°23'2 3.2
2018-Feb-12 07:30N 47°25' W 003°20'2 3.3
2018-Feb-12 07:01N 47°24' W 003°18'2 3.3
2018-Feb-12 06:31N 47°25' W 003°15'1 2.4
2018-Feb-12 06:01N 47°26' W 003°15'2 3.3
2018-Feb-12 05:30N 47°26' W 003°18'2 3.2
2018-Feb-12 05:00N 47°25' W 003°20'2 3.5
2018-Feb-12 04:30N 47°26' W 003°22'4 8.8
2018-Feb-12 04:00N 47°30' W 003°22'4 8.7
2018-Feb-12 03:30N 47°35' W 003°23'4 8.7
2018-Feb-12 03:00N 47°39' W 003°22'4 8.4
2018-Feb-12 02:30N 47°43' W 003°22'1 1.1
2018-Feb-12 02:00N 47°44' W 003°22'  
Track history (hours):
 
Tides and Currents Weather Stations Pressure Air Temp Water Temp Dewpoint Dewpoint Depression Visibility Wind Speed Wind Dir Waves Ship Positions

F/V Men Gwen

Last reported at 2018-Feb-21 06:31 UTC. Time now 2018-Feb-22 01:21 UTC.
Position N 47°10' W 003°02'.

Length 18 m.

Type: Fishing. MMSI: 227481000.

Date/timePositionNaut miles runAvg speedWind from/ knotsBaromVisibWave heightAir tempDewpointWater temp
2018-Feb-21 06:31N 47°10' W 003°02'0 3.3
2018-Feb-21 06:30N 47°10' W 003°02'2 3.3
2018-Feb-21 06:00N 47°12' W 003°01'4 6.3
2018-Feb-21 05:21N 47°16' W 003°01'3 8.4
2018-Feb-21 05:00N 47°19' W 003°02'4 8.8
2018-Feb-21 04:30N 47°22' W 003°05'5 9.7
2018-Feb-21 04:00N 47°26' W 003°09'5 9.3
2018-Feb-21 03:30N 47°30' W 003°13'4 9.0
2018-Feb-21 03:00N 47°34' W 003°16'4 8.8
2018-Feb-21 02:30N 47°38' W 003°19'4 8.6
2018-Feb-21 02:00N 47°42' W 003°22'2 3.9
2018-Feb-21 01:30N 47°44' W 003°22'0 0.0
2018-Feb-21 01:00N 47°44' W 003°22'2 4.0
2018-Feb-21 00:30N 47°42' W 003°22'4 8.2
2018-Feb-21 00:00N 47°38' W 003°22'4 8.2
2018-Feb-20 23:30N 47°34' W 003°22'4 8.1
2018-Feb-20 23:00N 47°29' W 003°21'2 3.9
2018-Feb-20 22:30N 47°28' W 003°21'2 3.3
2018-Feb-20 22:00N 47°26' W 003°19'2 3.5
2018-Feb-20 21:30N 47°26' W 003°17'2 3.4
2018-Feb-20 21:00N 47°26' W 003°19'2 3.2
2018-Feb-20 20:30N 47°26' W 003°21'1 1.3
2018-Feb-20 20:00N 47°26' W 003°21'2 3.8
2018-Feb-20 19:30N 47°26' W 003°18'2 3.7
2018-Feb-20 19:00N 47°26' W 003°15'1 2.0
2018-Feb-20 18:30N 47°25' W 003°14'1 2.9
2018-Feb-20 18:00N 47°26' W 003°17'2 3.3
2018-Feb-20 17:30N 47°25' W 003°19'1 2.5
2018-Feb-20 17:00N 47°25' W 003°17'1 2.8
2018-Feb-20 16:30N 47°25' W 003°15'1 2.2
2018-Feb-20 16:00N 47°26' W 003°15'2 4.2
2018-Feb-20 15:30N 47°26' W 003°18'1 2.9
2018-Feb-20 15:00N 47°25' W 003°20'1 2.7
2018-Feb-20 14:30N 47°24' W 003°18'1 2.7
2018-Feb-20 14:00N 47°24' W 003°16'1 2.7
2018-Feb-20 13:30N 47°26' W 003°15'2 3.3
2018-Feb-20 13:00N 47°26' W 003°17'2 3.4
2018-Feb-20 12:30N 47°25' W 003°19'2 3.1
2018-Feb-20 12:00N 47°25' W 003°22'1 2.5
2018-Feb-20 11:30N 47°25' W 003°23'2 3.0
2018-Feb-20 11:00N 47°25' W 003°21'2 3.6
2018-Feb-20 10:30N 47°25' W 003°19'2 3.8
2018-Feb-20 10:00N 47°25' W 003°16'1 1.9
2018-Feb-20 09:30N 47°25' W 003°16'1 3.0
2018-Feb-20 09:00N 47°25' W 003°18'2 3.3
2018-Feb-20 08:30N 47°25' W 003°20'2 3.2
2018-Feb-20 08:00N 47°25' W 003°23'1 2.2
2018-Feb-20 07:30N 47°24' W 003°22'2 3.3
2018-Feb-20 07:00N 47°25' W 003°19'2 3.3
2018-Feb-20 06:30N 47°24' W 003°17'2 3.2
2018-Feb-20 06:00N 47°25' W 003°15'1 2.6
2018-Feb-20 05:30N 47°26' W 003°16'2 4.0
2018-Feb-20 05:00N 47°25' W 003°19'1 1.6
2018-Feb-20 04:30N 47°25' W 003°19'1 2.6
2018-Feb-20 04:00N 47°25' W 003°17'1 2.5
2018-Feb-20 03:30N 47°25' W 003°15'1 2.4
2018-Feb-20 03:00N 47°26' W 003°15'2 4.2
2018-Feb-20 02:30N 47°26' W 003°18'1 2.8
2018-Feb-20 02:00N 47°24' W 003°19'1 2.9
2018-Feb-20 01:30N 47°24' W 003°17'1 2.7
2018-Feb-20 01:00N 47°25' W 003°15'1 1.8
2018-Feb-20 00:30N 47°26' W 003°15'2 3.5
2018-Feb-20 00:00N 47°26' W 003°18'1 2.4
2018-Feb-19 23:30N 47°25' W 003°19'2 3.6
2018-Feb-19 23:00N 47°24' W 003°16'1 2.5
2018-Feb-19 22:30N 47°26' W 003°15'1 2.9
2018-Feb-19 22:00N 47°25' W 003°18'1 2.5
2018-Feb-19 21:30N 47°25' W 003°19'1 1.6
2018-Feb-19 21:00N 47°26' W 003°20'2 3.3
2018-Feb-19 20:31N 47°26' W 003°22'1 2.6
2018-Feb-19 20:00N 47°28' W 003°22'2 3.0
2018-Feb-19 19:30N 47°26' W 003°21'2 3.5
2018-Feb-19 19:00N 47°26' W 003°19'1 1.4
2018-Feb-19 18:30N 47°26' W 003°19'1 2.3
2018-Feb-19 18:00N 47°24' W 003°19'2 3.4
2018-Feb-19 17:30N 47°24' W 003°16'2 3.1
2018-Feb-19 17:00N 47°25' W 003°14'2 3.6
2018-Feb-19 16:30N 47°26' W 003°17'2 3.9
2018-Feb-19 16:00N 47°25' W 003°20'2 3.8
2018-Feb-19 15:30N 47°26' W 003°22'4 8.8
2018-Feb-19 15:00N 47°30' W 003°22'4 8.5
2018-Feb-19 14:30N 47°34' W 003°22'4 8.3
2018-Feb-19 14:00N 47°39' W 003°22'4 8.5
2018-Feb-19 13:30N 47°43' W 003°22'1 1.9
2018-Feb-19 13:00N 47°44' W 003°22'0 0.0
2018-Feb-19 12:30N 47°44' W 003°22'0 0.0
2018-Feb-19 12:00N 47°44' W 003°22'0 0.0
2018-Feb-19 11:30N 47°44' W 003°22'0 0.0
2018-Feb-19 11:00N 47°44' W 003°22'  
2018-Feb-17 04:22N 47°44' W 003°22'0 0.3
2018-Feb-17 04:00N 47°44' W 003°22'0 0.0
2018-Feb-17 03:30N 47°44' W 003°22'0 0.0
2018-Feb-17 03:00N 47°44' W 003°22'0 0.0
2018-Feb-17 02:30N 47°44' W 003°22'0 0.0
2018-Feb-17 02:00N 47°44' W 003°22'0 0.2
2018-Feb-17 01:30N 47°44' W 003°22'0 0.0
2018-Feb-17 01:00N 47°44' W 003°22'0 0.2
2018-Feb-17 00:30N 47°44' W 003°22'1 1.2
2018-Feb-17 00:00N 47°43' W 003°22'5 9.3
2018-Feb-16 23:30N 47°38' W 003°23'4 8.5
2018-Feb-16 23:00N 47°34' W 003°22'4 8.7
2018-Feb-16 22:30N 47°30' W 003°21'3 6.5
2018-Feb-16 22:00N 47°27' W 003°19'2 3.3
2018-Feb-16 21:30N 47°25' W 003°19'1 2.7
2018-Feb-16 21:00N 47°24' W 003°18'2 4.0
2018-Feb-16 20:30N 47°25' W 003°15'1 2.2
2018-Feb-16 20:00N 47°26' W 003°16'2 3.2
2018-Feb-16 19:29N 47°26' W 003°18'1 2.3
2018-Feb-16 19:00N 47°25' W 003°19'2 4.1
2018-Feb-16 18:31N 47°25' W 003°16'1 2.5
2018-Feb-16 18:00N 47°26' W 003°17'2 3.1
2018-Feb-16 17:30N 47°25' W 003°19'1 3.0
2018-Feb-16 17:00N 47°25' W 003°17'1 2.8
2018-Feb-16 16:30N 47°25' W 003°15'2 3.3
2018-Feb-16 16:00N 47°25' W 003°18'1 1.8
2018-Feb-16 15:30N 47°25' W 003°19'2 3.5
2018-Feb-16 15:00N 47°24' W 003°16'2 3.0
2018-Feb-16 14:30N 47°25' W 003°14'1 1.3
2018-Feb-16 14:00N 47°26' W 003°14'2 3.2
2018-Feb-16 13:30N 47°26' W 003°17'2 3.8
2018-Feb-16 13:01N 47°25' W 003°19'1 2.8
2018-Feb-16 12:30N 47°24' W 003°18'1 2.8
2018-Feb-16 12:01N 47°25' W 003°16'1 1.6
2018-Feb-16 11:30N 47°25' W 003°16'2 3.3
2018-Feb-16 11:00N 47°25' W 003°19'2 3.3
2018-Feb-16 10:30N 47°25' W 003°21'1 2.0
2018-Feb-16 10:00N 47°24' W 003°22'2 3.6
2018-Feb-16 09:30N 47°25' W 003°20'2 3.6
2018-Feb-16 09:00N 47°25' W 003°17'2 3.4
2018-Feb-16 08:30N 47°25' W 003°15'1 2.2
2018-Feb-16 08:00N 47°26' W 003°16'2 3.1
2018-Feb-16 07:30N 47°26' W 003°18'1 2.0
2018-Feb-16 07:01N 47°25' W 003°19'2 3.8
2018-Feb-16 06:30N 47°25' W 003°16'1 1.4
2018-Feb-16 06:00N 47°25' W 003°17'2 3.2
2018-Feb-16 05:30N 47°25' W 003°19'1 2.2
2018-Feb-16 05:01N 47°24' W 003°18'2 3.5
2018-Feb-16 04:30N 47°25' W 003°15'1 2.3
2018-Feb-16 04:00N 47°26' W 003°16'2 3.9
2018-Feb-16 03:30N 47°26' W 003°18'2 3.7
2018-Feb-16 03:00N 47°25' W 003°21'4 7.7
2018-Feb-16 02:30N 47°21' W 003°20'5 9.0
2018-Feb-16 02:00N 47°17' W 003°18'4 8.8
2018-Feb-16 01:30N 47°13' W 003°14'4 9.0
2018-Feb-16 01:00N 47°09' W 003°11'15 0.3
2018-Feb-14 06:05N 47°21' W 003°25'1 7.6
2018-Feb-14 06:00N 47°22' W 003°24'4 7.8
2018-Feb-14 05:30N 47°26' W 003°24'4 7.9
2018-Feb-14 05:00N 47°29' W 003°23'4 7.9
2018-Feb-14 04:30N 47°33' W 003°23'4 8.2
2018-Feb-14 04:00N 47°38' W 003°23'4 8.2
2018-Feb-14 03:30N 47°42' W 003°22'2 4.2
2018-Feb-14 03:00N 47°44' W 003°22'0 0.0
2018-Feb-14 02:30N 47°44' W 003°22'0 0.0
2018-Feb-14 02:00N 47°44' W 003°22'0 0.0
2018-Feb-14 01:30N 47°44' W 003°22'0 0.0
2018-Feb-14 01:00N 47°44' W 003°22'0 0.0
2018-Feb-14 00:30N 47°44' W 003°22'0 0.2
2018-Feb-14 00:00N 47°44' W 003°22'4 8.7
2018-Feb-13 23:30N 47°39' W 003°22'4 8.3
2018-Feb-13 23:00N 47°35' W 003°19'4 8.3
2018-Feb-13 22:30N 47°32' W 003°17'4 8.0
2018-Feb-13 22:00N 47°28' W 003°15'3 5.1
2018-Feb-13 21:30N 47°25' W 003°16'2 3.5
2018-Feb-13 21:00N 47°25' W 003°18'1 1.7
2018-Feb-13 20:30N 47°24' W 003°18'2 3.7
2018-Feb-13 20:00N 47°24' W 003°15'2 3.1
2018-Feb-13 19:30N 47°25' W 003°13'1 2.5
2018-Feb-13 19:00N 47°26' W 003°15'2 3.3
2018-Feb-13 18:30N 47°26' W 003°17'2 3.1
2018-Feb-13 18:00N 47°25' W 003°19'1 2.8
2018-Feb-13 17:30N 47°25' W 003°17'1 2.6
2018-Feb-13 17:00N 47°25' W 003°15'1 2.3
2018-Feb-13 16:30N 47°26' W 003°15'2 3.5
2018-Feb-13 16:00N 47°26' W 003°18'1 2.3
2018-Feb-13 15:30N 47°25' W 003°19'1 2.8
2018-Feb-13 15:00N 47°25' W 003°17'1 2.7
2018-Feb-13 14:30N 47°25' W 003°15'1 2.5
2018-Feb-13 14:00N 47°25' W 003°16'2 3.9
2018-Feb-13 13:30N 47°25' W 003°19'1 1.9
2018-Feb-13 13:00N 47°25' W 003°20'1 2.7
2018-Feb-13 12:31N 47°24' W 003°18'1 2.7
2018-Feb-13 12:01N 47°24' W 003°16'1 2.6
2018-Feb-13 11:30N 47°24' W 003°15'1 2.4
2018-Feb-13 11:01N 47°25' W 003°13'1 2.6
2018-Feb-13 10:31N 47°26' W 003°15'2 3.8
2018-Feb-13 10:01N 47°26' W 003°18'2 3.6
2018-Feb-13 09:30N 47°25' W 003°20'0 1.0
2018-Feb-13 09:01N 47°25' W 003°21'2 3.2
2018-Feb-13 08:30N 47°24' W 003°18'2 3.2
2018-Feb-13 08:00N 47°24' W 003°16'1 1.7
2018-Feb-13 07:31N 47°25' W 003°16'1 2.9
2018-Feb-13 07:00N 47°25' W 003°18'1 3.0
2018-Feb-13 06:30N 47°25' W 003°20'1 2.9
2018-Feb-13 06:00N 47°25' W 003°22'1 2.1
2018-Feb-13 05:30N 47°24' W 003°22'1 2.9
2018-Feb-13 05:00N 47°25' W 003°20'1 1.2
2018-Feb-13 04:30N 47°25' W 003°19'1 2.5
2018-Feb-13 04:00N 47°24' W 003°18'2 3.2
2018-Feb-13 03:30N 47°25' W 003°16'1 1.6
2018-Feb-13 03:01N 47°25' W 003°16'2 3.3
2018-Feb-13 02:30N 47°25' W 003°19'2 3.5
2018-Feb-13 02:00N 47°25' W 003°21'1 2.5
2018-Feb-13 01:30N 47°24' W 003°23'1 2.9
2018-Feb-13 01:01N 47°25' W 003°21'1 1.9
2018-Feb-13 00:30N 47°25' W 003°19'1 3.0
2018-Feb-13 00:00N 47°25' W 003°17'1 2.8
2018-Feb-12 23:30N 47°25' W 003°15'1 2.2
2018-Feb-12 23:00N 47°26' W 003°16'2 3.9
2018-Feb-12 22:30N 47°26' W 003°19'2 3.6
2018-Feb-12 22:00N 47°25' W 003°21'1 2.5
2018-Feb-12 21:30N 47°24' W 003°23'2 3.0
2018-Feb-12 21:00N 47°25' W 003°20'1 2.3
2018-Feb-12 20:31N 47°24' W 003°19'2 3.4
2018-Feb-12 20:00N 47°25' W 003°16'1 2.4
2018-Feb-12 19:31N 47°25' W 003°18'1 2.2
2018-Feb-12 19:00N 47°25' W 003°19'2 3.8
2018-Feb-12 18:30N 47°24' W 003°16'2 3.3
2018-Feb-12 18:00N 47°26' W 003°15'2 3.3
2018-Feb-12 17:30N 47°26' W 003°17'2 3.5
2018-Feb-12 17:00N 47°25' W 003°20'0 1.0
2018-Feb-12 16:30N 47°25' W 003°20'2 3.4
2018-Feb-12 16:01N 47°25' W 003°17'2 3.0
2018-Feb-12 15:30N 47°25' W 003°15'2 3.2
2018-Feb-12 15:00N 47°25' W 003°18'2 3.6
2018-Feb-12 14:31N 47°25' W 003°20'2 3.4
2018-Feb-12 14:00N 47°25' W 003°23'1 2.4
2018-Feb-12 13:31N 47°25' W 003°21'2 3.2
2018-Feb-12 13:01N 47°24' W 003°19'1 2.5
2018-Feb-12 12:31N 47°24' W 003°17'1 3.0
2018-Feb-12 12:01N 47°25' W 003°15'1 2.3
2018-Feb-12 11:30N 47°26' W 003°16'2 3.8
2018-Feb-12 11:01N 47°25' W 003°19'1 1.9
2018-Feb-12 10:31N 47°25' W 003°18'1 3.0
2018-Feb-12 10:01N 47°25' W 003°16'1 1.4
2018-Feb-12 09:31N 47°25' W 003°16'2 3.6
2018-Feb-12 09:01N 47°25' W 003°19'2 3.7
2018-Feb-12 08:31N 47°25' W 003°22'1 2.3
2018-Feb-12 08:00N 47°24' W 003°23'2 3.2
2018-Feb-12 07:30N 47°25' W 003°20'2 3.3
2018-Feb-12 07:01N 47°24' W 003°18'2 3.3
2018-Feb-12 06:31N 47°25' W 003°15'1 2.4
2018-Feb-12 06:01N 47°26' W 003°15'2 3.3
2018-Feb-12 05:30N 47°26' W 003°18'2 3.2
2018-Feb-12 05:00N 47°25' W 003°20'2 3.5
2018-Feb-12 04:30N 47°26' W 003°22'4 8.8
2018-Feb-12 04:00N 47°30' W 003°22'4 8.7
2018-Feb-12 03:30N 47°35' W 003°23'4 8.7
2018-Feb-12 03:00N 47°39' W 003°22'4 8.4
2018-Feb-12 02:30N 47°43' W 003°22'1 1.1
2018-Feb-12 02:00N 47°44' W 003°22'  

Dump ship's entire track history